SHMÚ vydal meteorologické výstrahy na VietorPoľadovica Zobraziť výstrahy

TAF

Letisková predpoveď TAF

Informácie o správe TAF

08.12.2016 - 11:00 UTC (Včera)

TAF AMD LZTT 081520Z 0812/0912 09006KT 9999 FEW050 SCT100
    BECMG 0816/0818 24012KT
    PROB30 TEMPO 0902/0908 BKN012=

08.12.2016 - 14:00 UTC (Včera)

TAF LZSL 081400Z 0815/0900 24004KT 5000 BR FEW008 SCT050
    TEMPO 0816/0820 2000 BR SCT004 BKN012
    BECMG 0820/0822 VRB02KT 1200 BR BKN010=
TAF LZPP 081400Z 0815/0900 16006KT 4000 BR OVC005
    TEMPO 0815/0818 6000 BKN010
    BECMG 0818/0820 VRB02KT 2500 BR OVC002
    TEMPO 0819/0900 0800 FZFG=
TAF LZZI 081400Z 0815/0900 26008KT 4000 BR SCT004 BKN010
    TEMPO 0815/0818 7000 FEW015 SCT025
    TEMPO 0818/0900 1200 BR OVC003=

skok na menu ↑


skok na začiatok stránky ↑